sensor_id;sensor_type;location;lat;lon;timestamp;temperature;humidity
41882;DHT22;27562;47.524;12.404;2022-12-20T00:01:52;-1.90;99.90
41882;DHT22;27562;47.524;12.404;2022-12-20T00:04:18;-1.90;99.90
41882;DHT22;27562;47.524;12.404;2022-12-20T00:06:43;-1.90;99.90
41882;DHT22;27562;47.524;12.404;2022-12-20T00:09:10;-1.80;99.90
41882;DHT22;27562;47.524;12.404;2022-12-20T00:11:37;-1.80;99.90
41882;DHT22;27562;47.524;12.404;2022-12-20T00:14:03;-1.80;99.90
41882;DHT22;27562;47.524;12.404;2022-12-20T00:16:29;-1.80;99.90
41882;DHT22;27562;47.524;12.404;2022-12-20T00:18:56;-1.80;99.90
41882;DHT22;27562;47.524;12.404;2022-12-20T00:21:22;-1.70;99.90
41882;DHT22;27562;47.524;12.404;2022-12-20T00:23:47;-1.70;99.90
41882;DHT22;27562;47.524;12.404;2022-12-20T00:26:14;-1.70;99.90
41882;DHT22;27562;47.524;12.404;2022-12-20T00:28:40;-1.70;99.90
41882;DHT22;27562;47.524;12.404;2022-12-20T00:31:07;-1.80;99.90
41882;DHT22;27562;47.524;12.404;2022-12-20T00:33:33;-1.90;99.90
41882;DHT22;27562;47.524;12.404;2022-12-20T00:35:59;-1.90;99.90
41882;DHT22;27562;47.524;12.404;2022-12-20T00:38:25;-2.00;99.90
41882;DHT22;27562;47.524;12.404;2022-12-20T00:41:03;-2.00;99.90
41882;DHT22;27562;47.524;12.404;2022-12-20T00:43:30;-1.90;99.90
41882;DHT22;27562;47.524;12.404;2022-12-20T00:45:56;-1.90;99.90
41882;DHT22;27562;47.524;12.404;2022-12-20T00:48:21;-1.90;99.90
41882;DHT22;27562;47.524;12.404;2022-12-20T00:50:47;-1.80;99.90
41882;DHT22;27562;47.524;12.404;2022-12-20T00:53:13;-1.80;99.90
41882;DHT22;27562;47.524;12.404;2022-12-20T00:55:42;-1.80;99.90
41882;DHT22;27562;47.524;12.404;2022-12-20T00:58:08;-1.70;99.90
41882;DHT22;27562;47.524;12.404;2022-12-20T01:00:34;-1.70;99.90
41882;DHT22;27562;47.524;12.404;2022-12-20T01:02:59;-1.60;99.90
41882;DHT22;27562;47.524;12.404;2022-12-20T01:05:25;-1.60;99.90
41882;DHT22;27562;47.524;12.404;2022-12-20T01:07:50;-1.60;99.90
41882;DHT22;27562;47.524;12.404;2022-12-20T01:10:16;-1.70;99.90
41882;DHT22;27562;47.524;12.404;2022-12-20T01:12:42;-1.70;99.90
41882;DHT22;27562;47.524;12.404;2022-12-20T01:15:08;-1.70;99.90
41882;DHT22;27562;47.524;12.404;2022-12-20T01:17:35;-1.70;99.90
41882;DHT22;27562;47.524;12.404;2022-12-20T01:20:00;-1.70;99.90
41882;DHT22;27562;47.524;12.404;2022-12-20T01:22:26;-1.70;99.90
41882;DHT22;27562;47.524;12.404;2022-12-20T01:24:51;-1.70;99.90
41882;DHT22;27562;47.524;12.404;2022-12-20T01:27:17;-1.70;99.90
41882;DHT22;27562;47.524;12.404;2022-12-20T01:29:43;-1.70;99.90
41882;DHT22;27562;47.524;12.404;2022-12-20T01:32:08;-1.70;99.90
41882;DHT22;27562;47.524;12.404;2022-12-20T01:34:34;-1.70;99.90
41882;DHT22;27562;47.524;12.404;2022-12-20T01:36:59;-1.70;99.90
41882;DHT22;27562;47.524;12.404;2022-12-20T01:39:25;-1.70;99.90
41882;DHT22;27562;47.524;12.404;2022-12-20T01:41:50;-1.70;99.90
41882;DHT22;27562;47.524;12.404;2022-12-20T01:46:42;-1.70;99.90
41882;DHT22;27562;47.524;12.404;2022-12-20T01:52:03;-1.70;99.90
41882;DHT22;27562;47.524;12.404;2022-12-20T01:54:34;-1.80;99.90
41882;DHT22;27562;47.524;12.404;2022-12-20T01:57:12;-1.80;99.90
41882;DHT22;27562;47.524;12.404;2022-12-20T01:59:39;-1.80;99.90
41882;DHT22;27562;47.524;12.404;2022-12-20T02:02:06;-1.80;99.90
41882;DHT22;27562;47.524;12.404;2022-12-20T02:04:34;-1.80;99.90
41882;DHT22;27562;47.524;12.404;2022-12-20T02:06:59;-1.80;99.90
41882;DHT22;27562;47.524;12.404;2022-12-20T02:09:26;-1.80;99.90
41882;DHT22;27562;47.524;12.404;2022-12-20T02:19:33;-1.80;99.90
41882;DHT22;27562;47.524;12.404;2022-12-20T02:22:13;-1.80;99.90
41882;DHT22;27562;47.524;12.404;2022-12-20T02:27:28;-1.90;99.90
41882;DHT22;27562;47.524;12.404;2022-12-20T02:32:24;-1.90;99.90
41882;DHT22;27562;47.524;12.404;2022-12-20T02:34:51;-1.90;99.90
41882;DHT22;27562;47.524;12.404;2022-12-20T02:37:16;-2.00;99.90
41882;DHT22;27562;47.524;12.404;2022-12-20T02:39:42;-1.90;99.90
41882;DHT22;27562;47.524;12.404;2022-12-20T02:42:10;-1.90;99.90
41882;DHT22;27562;47.524;12.404;2022-12-20T02:44:36;-1.90;99.90
41882;DHT22;27562;47.524;12.404;2022-12-20T02:47:23;-1.90;99.90
41882;DHT22;27562;47.524;12.404;2022-12-20T02:49:51;-1.90;99.90
41882;DHT22;27562;47.524;12.404;2022-12-20T02:52:18;-1.90;99.90
41882;DHT22;27562;47.524;12.404;2022-12-20T02:54:45;-1.80;99.90
41882;DHT22;27562;47.524;12.404;2022-12-20T02:57:15;-1.80;99.90
41882;DHT22;27562;47.524;12.404;2022-12-20T02:59:46;-1.80;99.90
41882;DHT22;27562;47.524;12.404;2022-12-20T03:02:14;-1.80;99.90
41882;DHT22;27562;47.524;12.404;2022-12-20T03:04:40;-1.80;99.90
41882;DHT22;27562;47.524;12.404;2022-12-20T03:07:10;-1.80;99.90
41882;DHT22;27562;47.524;12.404;2022-12-20T03:09:38;-1.80;99.90
41882;DHT22;27562;47.524;12.404;2022-12-20T03:12:04;-1.80;99.90
41882;DHT22;27562;47.524;12.404;2022-12-20T03:14:30;-1.80;99.90
41882;DHT22;27562;47.524;12.404;2022-12-20T03:16:55;-1.80;99.90
41882;DHT22;27562;47.524;12.404;2022-12-20T03:19:21;-1.80;99.90
41882;DHT22;27562;47.524;12.404;2022-12-20T03:21:47;-1.80;99.90
41882;DHT22;27562;47.524;12.404;2022-12-20T03:24:12;-1.80;99.90
41882;DHT22;27562;47.524;12.404;2022-12-20T03:26:38;-1.70;99.90
41882;DHT22;27562;47.524;12.404;2022-12-20T03:29:04;-1.80;99.90
41882;DHT22;27562;47.524;12.404;2022-12-20T03:31:30;-1.80;99.90
41882;DHT22;27562;47.524;12.404;2022-12-20T03:33:55;-1.70;99.90
41882;DHT22;27562;47.524;12.404;2022-12-20T03:36:21;-1.70;99.90
41882;DHT22;27562;47.524;12.404;2022-12-20T03:38:48;-1.70;99.90
41882;DHT22;27562;47.524;12.404;2022-12-20T03:41:14;-1.80;99.90
41882;DHT22;27562;47.524;12.404;2022-12-20T03:43:40;-1.80;99.90
41882;DHT22;27562;47.524;12.404;2022-12-20T03:46:05;-1.80;99.90
41882;DHT22;27562;47.524;12.404;2022-12-20T03:48:31;-1.80;99.90
41882;DHT22;27562;47.524;12.404;2022-12-20T03:50:56;-1.80;99.90
41882;DHT22;27562;47.524;12.404;2022-12-20T03:53:22;-1.80;99.90
41882;DHT22;27562;47.524;12.404;2022-12-20T03:55:47;-1.80;99.90
41882;DHT22;27562;47.524;12.404;2022-12-20T03:58:13;-1.90;99.90
41882;DHT22;27562;47.524;12.404;2022-12-20T04:00:38;-1.90;99.90
41882;DHT22;27562;47.524;12.404;2022-12-20T04:03:04;-1.90;99.90
41882;DHT22;27562;47.524;12.404;2022-12-20T04:05:29;-1.90;99.90
41882;DHT22;27562;47.524;12.404;2022-12-20T04:07:55;-2.00;99.90
41882;DHT22;27562;47.524;12.404;2022-12-20T04:10:21;-2.00;99.90
41882;DHT22;27562;47.524;12.404;2022-12-20T04:12:46;-2.00;99.90
41882;DHT22;27562;47.524;12.404;2022-12-20T04:15:12;-2.00;99.90
41882;DHT22;27562;47.524;12.404;2022-12-20T04:17:37;-2.10;99.90
41882;DHT22;27562;47.524;12.404;2022-12-20T04:20:03;-2.20;99.90
41882;DHT22;27562;47.524;12.404;2022-12-20T04:22:44;-2.20;99.90
41882;DHT22;27562;47.524;12.404;2022-12-20T04:25:09;-2.20;99.90
41882;DHT22;27562;47.524;12.404;2022-12-20T04:27:35;-2.30;99.90
41882;DHT22;27562;47.524;12.404;2022-12-20T04:30:01;-2.30;99.90
41882;DHT22;27562;47.524;12.404;2022-12-20T04:32:26;-2.30;99.90
41882;DHT22;27562;47.524;12.404;2022-12-20T04:34:52;-2.30;99.90
41882;DHT22;27562;47.524;12.404;2022-12-20T04:37:17;-2.40;99.90
41882;DHT22;27562;47.524;12.404;2022-12-20T04:39:43;-2.40;99.90
41882;DHT22;27562;47.524;12.404;2022-12-20T04:42:08;-2.40;99.90
41882;DHT22;27562;47.524;12.404;2022-12-20T04:44:34;-2.40;99.90
41882;DHT22;27562;47.524;12.404;2022-12-20T04:46:59;-2.40;99.90
41882;DHT22;27562;47.524;12.404;2022-12-20T04:49:25;-2.40;99.90
41882;DHT22;27562;47.524;12.404;2022-12-20T04:51:51;-2.40;99.90
41882;DHT22;27562;47.524;12.404;2022-12-20T04:54:16;-2.40;99.90
41882;DHT22;27562;47.524;12.404;2022-12-20T04:56:42;-2.40;99.90
41882;DHT22;27562;47.524;12.404;2022-12-20T04:59:08;-2.50;99.90
41882;DHT22;27562;47.524;12.404;2022-12-20T05:01:33;-2.60;99.90
41882;DHT22;27562;47.524;12.404;2022-12-20T05:03:59;-2.60;99.90
41882;DHT22;27562;47.524;12.404;2022-12-20T05:06:24;-2.60;99.90
41882;DHT22;27562;47.524;12.404;2022-12-20T05:08:50;-2.60;99.90
41882;DHT22;27562;47.524;12.404;2022-12-20T05:11:16;-2.70;99.90
41882;DHT22;27562;47.524;12.404;2022-12-20T05:13:41;-2.60;99.90
41882;DHT22;27562;47.524;12.404;2022-12-20T05:16:07;-2.60;99.90
41882;DHT22;27562;47.524;12.404;2022-12-20T05:18:32;-2.60;99.90
41882;DHT22;27562;47.524;12.404;2022-12-20T05:20:58;-2.60;99.90
41882;DHT22;27562;47.524;12.404;2022-12-20T05:23:43;-2.50;99.90
41882;DHT22;27562;47.524;12.404;2022-12-20T05:26:31;-2.50;99.90
41882;DHT22;27562;47.524;12.404;2022-12-20T05:28:57;-2.50;99.90
41882;DHT22;27562;47.524;12.404;2022-12-20T05:31:23;-2.50;99.90
41882;DHT22;27562;47.524;12.404;2022-12-20T05:33:48;-2.60;99.90
41882;DHT22;27562;47.524;12.404;2022-12-20T05:36:14;-2.60;99.90
41882;DHT22;27562;47.524;12.404;2022-12-20T05:38:39;-2.60;99.90
41882;DHT22;27562;47.524;12.404;2022-12-20T05:41:05;-2.60;99.90
41882;DHT22;27562;47.524;12.404;2022-12-20T05:43:31;-2.60;99.90
41882;DHT22;27562;47.524;12.404;2022-12-20T05:45:56;-2.60;99.90
41882;DHT22;27562;47.524;12.404;2022-12-20T05:48:22;-2.50;99.90
41882;DHT22;27562;47.524;12.404;2022-12-20T05:50:47;-2.50;99.90
41882;DHT22;27562;47.524;12.404;2022-12-20T05:53:14;-2.50;99.90
41882;DHT22;27562;47.524;12.404;2022-12-20T05:55:43;-2.60;99.90
41882;DHT22;27562;47.524;12.404;2022-12-20T05:58:09;-2.60;99.90
41882;DHT22;27562;47.524;12.404;2022-12-20T06:00:38;-2.60;99.90
41882;DHT22;27562;47.524;12.404;2022-12-20T06:03:05;-2.60;99.90
41882;DHT22;27562;47.524;12.404;2022-12-20T06:05:30;-2.70;99.90
41882;DHT22;27562;47.524;12.404;2022-12-20T06:07:56;-2.70;99.90
41882;DHT22;27562;47.524;12.404;2022-12-20T06:10:21;-2.80;99.90
41882;DHT22;27562;47.524;12.404;2022-12-20T06:12:47;-2.80;99.90
41882;DHT22;27562;47.524;12.404;2022-12-20T06:15:13;-2.80;99.90
41882;DHT22;27562;47.524;12.404;2022-12-20T06:17:39;-2.80;99.90
41882;DHT22;27562;47.524;12.404;2022-12-20T06:20:05;-2.70;99.90
41882;DHT22;27562;47.524;12.404;2022-12-20T06:22:31;-2.70;99.90
41882;DHT22;27562;47.524;12.404;2022-12-20T06:24:57;-2.70;99.90
41882;DHT22;27562;47.524;12.404;2022-12-20T06:27:23;-2.70;99.90
41882;DHT22;27562;47.524;12.404;2022-12-20T06:29:48;-2.70;99.90
41882;DHT22;27562;47.524;12.404;2022-12-20T06:32:18;-2.70;99.90
41882;DHT22;27562;47.524;12.404;2022-12-20T06:34:44;-2.70;99.90
41882;DHT22;27562;47.524;12.404;2022-12-20T06:37:10;-2.70;99.90
41882;DHT22;27562;47.524;12.404;2022-12-20T06:39:35;-2.70;99.90
41882;DHT22;27562;47.524;12.404;2022-12-20T06:42:01;-2.70;99.90
41882;DHT22;27562;47.524;12.404;2022-12-20T06:44:26;-2.70;99.90
41882;DHT22;27562;47.524;12.404;2022-12-20T06:46:52;-2.60;99.90
41882;DHT22;27562;47.524;12.404;2022-12-20T06:49:17;-2.60;99.90
41882;DHT22;27562;47.524;12.404;2022-12-20T06:51:43;-2.60;99.90
41882;DHT22;27562;47.524;12.404;2022-12-20T06:54:08;-2.60;99.90
41882;DHT22;27562;47.524;12.404;2022-12-20T06:56:34;-2.60;99.90
41882;DHT22;27562;47.524;12.404;2022-12-20T06:58:59;-2.60;99.90
41882;DHT22;27562;47.524;12.404;2022-12-20T07:01:25;-2.60;99.90
41882;DHT22;27562;47.524;12.404;2022-12-20T07:03:51;-2.60;99.90
41882;DHT22;27562;47.524;12.404;2022-12-20T07:06:16;-2.50;99.90
41882;DHT22;27562;47.524;12.404;2022-12-20T07:08:42;-2.40;99.90
41882;DHT22;27562;47.524;12.404;2022-12-20T07:11:07;-2.40;99.90
41882;DHT22;27562;47.524;12.404;2022-12-20T07:13:33;-2.40;99.90
41882;DHT22;27562;47.524;12.404;2022-12-20T07:16:00;-2.40;99.90
41882;DHT22;27562;47.524;12.404;2022-12-20T07:18:26;-2.40;99.90
41882;DHT22;27562;47.524;12.404;2022-12-20T07:20:51;-2.40;99.90
41882;DHT22;27562;47.524;12.404;2022-12-20T07:23:17;-2.40;99.90
41882;DHT22;27562;47.524;12.404;2022-12-20T07:25:43;-2.40;99.90
41882;DHT22;27562;47.524;12.404;2022-12-20T07:28:08;-2.30;99.90
41882;DHT22;27562;47.524;12.404;2022-12-20T07:30:34;-2.40;99.90
41882;DHT22;27562;47.524;12.404;2022-12-20T07:33:01;-2.40;99.90
41882;DHT22;27562;47.524;12.404;2022-12-20T07:35:26;-2.40;99.90
41882;DHT22;27562;47.524;12.404;2022-12-20T07:37:52;-2.30;99.90
41882;DHT22;27562;47.524;12.404;2022-12-20T07:40:17;-2.30;99.90
41882;DHT22;27562;47.524;12.404;2022-12-20T07:42:43;-2.20;99.90
41882;DHT22;27562;47.524;12.404;2022-12-20T07:45:08;-2.20;99.90
41882;DHT22;27562;47.524;12.404;2022-12-20T07:47:34;-2.10;99.90
41882;DHT22;27562;47.524;12.404;2022-12-20T07:50:00;-2.00;99.90
41882;DHT22;27562;47.524;12.404;2022-12-20T07:52:26;-2.00;99.90
41882;DHT22;27562;47.524;12.404;2022-12-20T07:54:54;-2.00;99.90
41882;DHT22;27562;47.524;12.404;2022-12-20T07:57:28;-2.00;99.90
41882;DHT22;27562;47.524;12.404;2022-12-20T07:59:57;-1.90;99.90
41882;DHT22;27562;47.524;12.404;2022-12-20T08:02:43;-1.90;99.90
41882;DHT22;27562;47.524;12.404;2022-12-20T08:05:10;-1.90;99.90
41882;DHT22;27562;47.524;12.404;2022-12-20T08:07:36;-1.80;99.90
41882;DHT22;27562;47.524;12.404;2022-12-20T08:10:03;-1.70;99.90
41882;DHT22;27562;47.524;12.404;2022-12-20T08:12:29;-1.80;99.90
41882;DHT22;27562;47.524;12.404;2022-12-20T08:14:56;-1.70;99.90
41882;DHT22;27562;47.524;12.404;2022-12-20T08:17:21;-1.70;99.90
41882;DHT22;27562;47.524;12.404;2022-12-20T08:19:47;-1.60;99.90
41882;DHT22;27562;47.524;12.404;2022-12-20T08:22:16;-1.60;99.90
41882;DHT22;27562;47.524;12.404;2022-12-20T08:24:41;-1.50;99.90
41882;DHT22;27562;47.524;12.404;2022-12-20T08:27:07;-1.50;99.90
41882;DHT22;27562;47.524;12.404;2022-12-20T08:29:33;-1.50;99.90
41882;DHT22;27562;47.524;12.404;2022-12-20T08:31:58;-1.40;99.90
41882;DHT22;27562;47.524;12.404;2022-12-20T08:34:24;-1.30;99.90
41882;DHT22;27562;47.524;12.404;2022-12-20T08:36:49;-1.30;99.90
41882;DHT22;27562;47.524;12.404;2022-12-20T08:39:15;-1.30;99.90
41882;DHT22;27562;47.524;12.404;2022-12-20T08:41:40;-1.20;99.90
41882;DHT22;27562;47.524;12.404;2022-12-20T08:44:06;-1.10;99.90
41882;DHT22;27562;47.524;12.404;2022-12-20T08:46:31;-1.10;99.90
41882;DHT22;27562;47.524;12.404;2022-12-20T08:48:57;-1.00;99.90
41882;DHT22;27562;47.524;12.404;2022-12-20T08:51:23;-1.00;99.90
41882;DHT22;27562;47.524;12.404;2022-12-20T08:53:48;-0.90;99.90
41882;DHT22;27562;47.524;12.404;2022-12-20T08:56:15;-0.90;99.90
41882;DHT22;27562;47.524;12.404;2022-12-20T08:58:41;-0.80;99.90
41882;DHT22;27562;47.524;12.404;2022-12-20T09:01:08;-0.80;99.90
41882;DHT22;27562;47.524;12.404;2022-12-20T09:03:35;-0.80;99.90
41882;DHT22;27562;47.524;12.404;2022-12-20T09:06:03;-0.80;99.90
41882;DHT22;27562;47.524;12.404;2022-12-20T09:08:31;-0.70;99.90
41882;DHT22;27562;47.524;12.404;2022-12-20T09:11:30;-0.70;99.90
41882;DHT22;27562;47.524;12.404;2022-12-20T09:13:49;-0.60;99.90
41882;DHT22;27562;47.524;12.404;2022-12-20T09:16:17;-0.60;99.90
41882;DHT22;27562;47.524;12.404;2022-12-20T09:18:43;-0.50;99.90
41882;DHT22;27562;47.524;12.404;2022-12-20T09:21:09;-0.50;99.90
41882;DHT22;27562;47.524;12.404;2022-12-20T09:23:35;-0.50;99.90
41882;DHT22;27562;47.524;12.404;2022-12-20T09:26:01;-0.40;99.90
41882;DHT22;27562;47.524;12.404;2022-12-20T09:28:28;-0.40;99.90
41882;DHT22;27562;47.524;12.404;2022-12-20T09:31:00;-0.30;99.90
41882;DHT22;27562;47.524;12.404;2022-12-20T09:33:26;-0.20;99.90
41882;DHT22;27562;47.524;12.404;2022-12-20T09:35:53;-0.20;99.90
41882;DHT22;27562;47.524;12.404;2022-12-20T09:38:19;-0.10;99.90
41882;DHT22;27562;47.524;12.404;2022-12-20T09:40:45;0.00;99.90
41882;DHT22;27562;47.524;12.404;2022-12-20T09:43:12;0.00;99.90
41882;DHT22;27562;47.524;12.404;2022-12-20T09:45:39;0.10;99.90
41882;DHT22;27562;47.524;12.404;2022-12-20T09:48:05;0.20;99.90
41882;DHT22;27562;47.524;12.404;2022-12-20T09:50:39;0.20;99.90
41882;DHT22;27562;47.524;12.404;2022-12-20T09:55:35;0.20;99.90
41882;DHT22;27562;47.524;12.404;2022-12-20T10:00:48;0.30;99.90
41882;DHT22;27562;47.524;12.404;2022-12-20T10:03:19;0.40;99.90
41882;DHT22;27562;47.524;12.404;2022-12-20T10:05:52;0.40;99.90
41882;DHT22;27562;47.524;12.404;2022-12-20T10:08:23;0.50;99.90
41882;DHT22;27562;47.524;12.404;2022-12-20T10:10:56;0.50;99.90
41882;DHT22;27562;47.524;12.404;2022-12-20T10:16:26;0.60;99.90
41882;DHT22;27562;47.524;12.404;2022-12-20T10:21:33;0.60;99.90
41882;DHT22;27562;47.524;12.404;2022-12-20T10:24:03;0.60;99.90
41882;DHT22;27562;47.524;12.404;2022-12-20T10:26:31;0.70;99.90
41882;DHT22;27562;47.524;12.404;2022-12-20T10:28:57;0.70;99.90
41882;DHT22;27562;47.524;12.404;2022-12-20T10:31:23;0.70;99.90
41882;DHT22;27562;47.524;12.404;2022-12-20T10:33:49;0.70;99.90
41882;DHT22;27562;47.524;12.404;2022-12-20T10:36:36;0.80;99.90
41882;DHT22;27562;47.524;12.404;2022-12-20T10:39:09;0.80;99.90
41882;DHT22;27562;47.524;12.404;2022-12-20T10:44:18;0.90;99.90
41882;DHT22;27562;47.524;12.404;2022-12-20T10:46:45;0.90;99.90
41882;DHT22;27562;47.524;12.404;2022-12-20T10:49:30;1.00;99.90
41882;DHT22;27562;47.524;12.404;2022-12-20T10:52:00;1.00;99.90
41882;DHT22;27562;47.524;12.404;2022-12-20T10:54:36;1.10;99.90
41882;DHT22;27562;47.524;12.404;2022-12-20T10:57:06;1.10;99.90
41882;DHT22;27562;47.524;12.404;2022-12-20T10:59:36;1.20;99.90
41882;DHT22;27562;47.524;12.404;2022-12-20T11:02:20;1.30;99.90
41882;DHT22;27562;47.524;12.404;2022-12-20T11:07:27;1.50;99.90
41882;DHT22;27562;47.524;12.404;2022-12-20T11:09:54;1.50;99.90
41882;DHT22;27562;47.524;12.404;2022-12-20T11:12:20;1.60;99.90
41882;DHT22;27562;47.524;12.404;2022-12-20T11:14:46;1.60;99.90
41882;DHT22;27562;47.524;12.404;2022-12-20T11:40:29;1.80;99.90
41882;DHT22;27562;47.524;12.404;2022-12-20T11:56:06;2.10;99.90
41882;DHT22;27562;47.524;12.404;2022-12-20T12:01:03;2.10;99.90
41882;DHT22;27562;47.524;12.404;2022-12-20T12:03:33;2.20;99.90
41882;DHT22;27562;47.524;12.404;2022-12-20T12:08:42;2.30;99.90
41882;DHT22;27562;47.524;12.404;2022-12-20T12:11:13;2.40;99.90
41882;DHT22;27562;47.524;12.404;2022-12-20T12:13:41;2.40;99.90
41882;DHT22;27562;47.524;12.404;2022-12-20T12:18:33;2.50;99.90
41882;DHT22;27562;47.524;12.404;2022-12-20T12:21:01;2.50;99.90
41882;DHT22;27562;47.524;12.404;2022-12-20T12:29:00;2.50;99.90
41882;DHT22;27562;47.524;12.404;2022-12-20T12:44:45;2.60;99.90
41882;DHT22;27562;47.524;12.404;2022-12-20T12:48:15;2.70;99.90
41882;DHT22;27562;47.524;12.404;2022-12-20T12:50:45;2.70;99.90
41882;DHT22;27562;47.524;12.404;2022-12-20T12:53:05;2.70;99.90
41882;DHT22;27562;47.524;12.404;2022-12-20T12:55:34;2.60;99.90
41882;DHT22;27562;47.524;12.404;2022-12-20T12:58:11;2.60;99.90
41882;DHT22;27562;47.524;12.404;2022-12-20T13:03:15;2.50;99.90
41882;DHT22;27562;47.524;12.404;2022-12-20T13:05:41;2.50;99.90
41882;DHT22;27562;47.524;12.404;2022-12-20T13:08:15;2.50;99.90
41882;DHT22;27562;47.524;12.404;2022-12-20T13:13:17;2.50;99.90
41882;DHT22;27562;47.524;12.404;2022-12-20T13:15:45;2.50;99.90
41882;DHT22;27562;47.524;12.404;2022-12-20T13:20:37;2.50;99.90
41882;DHT22;27562;47.524;12.404;2022-12-20T13:28:45;2.60;99.90
41882;DHT22;27562;47.524;12.404;2022-12-20T13:36:28;2.50;99.90
41882;DHT22;27562;47.524;12.404;2022-12-20T13:38:51;2.50;99.90
41882;DHT22;27562;47.524;12.404;2022-12-20T13:43:45;2.40;99.90
41882;DHT22;27562;47.524;12.404;2022-12-20T13:51:22;2.40;99.90
41882;DHT22;27562;47.524;12.404;2022-12-20T13:53:55;2.40;99.90
41882;DHT22;27562;47.524;12.404;2022-12-20T13:58:53;2.50;99.90
41882;DHT22;27562;47.524;12.404;2022-12-20T14:01:20;2.40;99.90
41882;DHT22;27562;47.524;12.404;2022-12-20T14:03:46;2.50;99.90
41882;DHT22;27562;47.524;12.404;2022-12-20T14:06:13;2.50;99.90
41882;DHT22;27562;47.524;12.404;2022-12-20T14:08:45;2.60;99.90
41882;DHT22;27562;47.524;12.404;2022-12-20T14:11:19;2.60;99.90
41882;DHT22;27562;47.524;12.404;2022-12-20T14:13:54;2.60;99.90
41882;DHT22;27562;47.524;12.404;2022-12-20T14:16:20;2.60;99.90
41882;DHT22;27562;47.524;12.404;2022-12-20T14:18:47;2.60;99.90
41882;DHT22;27562;47.524;12.404;2022-12-20T14:21:13;2.50;99.90
41882;DHT22;27562;47.524;12.404;2022-12-20T14:23:40;2.50;99.90
41882;DHT22;27562;47.524;12.404;2022-12-20T14:26:08;2.60;99.90
41882;DHT22;27562;47.524;12.404;2022-12-20T14:28:38;2.50;99.90
41882;DHT22;27562;47.524;12.404;2022-12-20T14:31:05;2.50;99.90
41882;DHT22;27562;47.524;12.404;2022-12-20T14:33:38;2.50;99.90
41882;DHT22;27562;47.524;12.404;2022-12-20T14:38:33;2.50;99.90
41882;DHT22;27562;47.524;12.404;2022-12-20T14:40:58;2.50;99.90
41882;DHT22;27562;47.524;12.404;2022-12-20T14:43:25;2.40;99.90
41882;DHT22;27562;47.524;12.404;2022-12-20T14:46:05;2.40;99.90
41882;DHT22;27562;47.524;12.404;2022-12-20T14:48:31;2.30;99.90
41882;DHT22;27562;47.524;12.404;2022-12-20T14:50:57;2.30;99.90
41882;DHT22;27562;47.524;12.404;2022-12-20T14:53:23;2.20;99.90
41882;DHT22;27562;47.524;12.404;2022-12-20T14:55:53;2.10;99.90
41882;DHT22;27562;47.524;12.404;2022-12-20T15:00:54;1.90;99.90
41882;DHT22;27562;47.524;12.404;2022-12-20T15:03:22;1.90;99.90
41882;DHT22;27562;47.524;12.404;2022-12-20T15:05:57;1.80;99.90
41882;DHT22;27562;47.524;12.404;2022-12-20T15:08:30;1.70;99.90
41882;DHT22;27562;47.524;12.404;2022-12-20T15:11:03;1.70;99.90
41882;DHT22;27562;47.524;12.404;2022-12-20T15:13:37;1.60;99.90
41882;DHT22;27562;47.524;12.404;2022-12-20T15:16:04;1.50;99.90
41882;DHT22;27562;47.524;12.404;2022-12-20T15:18:30;1.50;99.90
41882;DHT22;27562;47.524;12.404;2022-12-20T15:23:24;1.40;99.90
41882;DHT22;27562;47.524;12.404;2022-12-20T15:25:50;1.30;99.90
41882;DHT22;27562;47.524;12.404;2022-12-20T15:28:20;1.20;99.90
41882;DHT22;27562;47.524;12.404;2022-12-20T15:30:46;1.20;99.90
41882;DHT22;27562;47.524;12.404;2022-12-20T15:33:13;1.10;99.90
41882;DHT22;27562;47.524;12.404;2022-12-20T15:35:39;1.00;99.90
41882;DHT22;27562;47.524;12.404;2022-12-20T15:38:08;1.00;99.90
41882;DHT22;27562;47.524;12.404;2022-12-20T15:40:34;0.90;99.90
41882;DHT22;27562;47.524;12.404;2022-12-20T15:43:00;0.90;99.90
41882;DHT22;27562;47.524;12.404;2022-12-20T15:45:25;0.90;99.90
41882;DHT22;27562;47.524;12.404;2022-12-20T15:47:51;0.80;99.90
41882;DHT22;27562;47.524;12.404;2022-12-20T15:50:17;0.80;99.90
41882;DHT22;27562;47.524;12.404;2022-12-20T15:52:42;0.80;99.90
41882;DHT22;27562;47.524;12.404;2022-12-20T15:55:09;0.70;99.90
41882;DHT22;27562;47.524;12.404;2022-12-20T15:57:35;0.70;99.90
41882;DHT22;27562;47.524;12.404;2022-12-20T16:00:00;0.60;99.90
41882;DHT22;27562;47.524;12.404;2022-12-20T16:02:27;0.60;99.90
41882;DHT22;27562;47.524;12.404;2022-12-20T16:04:53;0.50;99.90
41882;DHT22;27562;47.524;12.404;2022-12-20T16:07:19;0.50;99.90
41882;DHT22;27562;47.524;12.404;2022-12-20T16:09:45;0.50;99.90
41882;DHT22;27562;47.524;12.404;2022-12-20T16:12:18;0.50;99.90
41882;DHT22;27562;47.524;12.404;2022-12-20T16:14:45;0.50;99.90
41882;DHT22;27562;47.524;12.404;2022-12-20T16:17:14;0.50;99.90
41882;DHT22;27562;47.524;12.404;2022-12-20T16:19:40;0.50;99.90
41882;DHT22;27562;47.524;12.404;2022-12-20T16:22:13;0.50;99.90
41882;DHT22;27562;47.524;12.404;2022-12-20T16:24:39;0.50;99.90
41882;DHT22;27562;47.524;12.404;2022-12-20T16:27:05;0.50;99.90
41882;DHT22;27562;47.524;12.404;2022-12-20T16:29:30;0.50;99.90
41882;DHT22;27562;47.524;12.404;2022-12-20T16:31:56;0.50;99.90
41882;DHT22;27562;47.524;12.404;2022-12-20T16:34:21;0.50;99.90
41882;DHT22;27562;47.524;12.404;2022-12-20T16:36:47;0.60;99.90
41882;DHT22;27562;47.524;12.404;2022-12-20T16:39:13;0.50;99.90
41882;DHT22;27562;47.524;12.404;2022-12-20T16:41:39;0.50;99.90
41882;DHT22;27562;47.524;12.404;2022-12-20T16:44:05;0.50;99.90
41882;DHT22;27562;47.524;12.404;2022-12-20T16:46:31;0.40;99.90
41882;DHT22;27562;47.524;12.404;2022-12-20T16:48:59;0.40;99.90
41882;DHT22;27562;47.524;12.404;2022-12-20T16:51:37;0.40;99.90
41882;DHT22;27562;47.524;12.404;2022-12-20T16:54:04;0.40;99.90
41882;DHT22;27562;47.524;12.404;2022-12-20T16:56:30;0.40;99.90
41882;DHT22;27562;47.524;12.404;2022-12-20T16:58:56;0.50;99.90
41882;DHT22;27562;47.524;12.404;2022-12-20T17:01:23;0.50;99.90
41882;DHT22;27562;47.524;12.404;2022-12-20T17:03:49;0.50;99.90
41882;DHT22;27562;47.524;12.404;2022-12-20T17:06:15;0.50;99.90
41882;DHT22;27562;47.524;12.404;2022-12-20T17:08:41;0.50;99.90
41882;DHT22;27562;47.524;12.404;2022-12-20T17:13:36;0.40;99.90
41882;DHT22;27562;47.524;12.404;2022-12-20T17:16:01;0.50;99.90
41882;DHT22;27562;47.524;12.404;2022-12-20T17:18:27;0.50;99.90
41882;DHT22;27562;47.524;12.404;2022-12-20T17:20:52;0.50;99.90
41882;DHT22;27562;47.524;12.404;2022-12-20T17:23:18;0.50;99.90
41882;DHT22;27562;47.524;12.404;2022-12-20T17:25:43;0.60;99.90
41882;DHT22;27562;47.524;12.404;2022-12-20T17:28:09;0.60;99.90
41882;DHT22;27562;47.524;12.404;2022-12-20T17:30:34;0.60;99.90
41882;DHT22;27562;47.524;12.404;2022-12-20T17:33:00;0.60;99.90
41882;DHT22;27562;47.524;12.404;2022-12-20T17:35:29;0.60;99.90
41882;DHT22;27562;47.524;12.404;2022-12-20T17:37:55;0.60;99.90
41882;DHT22;27562;47.524;12.404;2022-12-20T17:40:22;0.60;99.90